createdAt,value
2019-05-07T00:02:02.720Z,1.33
2019-05-07T00:04:32.956Z,1.60
2019-05-07T00:07:02.429Z,1.47
2019-05-07T00:09:32.268Z,1.33
2019-05-07T00:12:04.690Z,1.30
2019-05-07T00:14:32.367Z,1.47
2019-05-07T00:17:02.243Z,1.60
2019-05-07T00:19:32.427Z,1.60
2019-05-07T00:22:02.388Z,1.50
2019-05-07T00:24:33.137Z,1.60
2019-05-07T00:27:02.788Z,1.10
2019-05-07T00:29:32.141Z,1.20
2019-05-07T00:32:02.995Z,1.50
2019-05-07T00:34:32.886Z,1.30
2019-05-07T00:37:03.120Z,1.10
2019-05-07T00:39:52.894Z,1.57
2019-05-07T00:42:23.006Z,1.30
2019-05-07T00:45:15.915Z,1.23
2019-05-07T00:47:32.999Z,1.40
2019-05-07T00:50:03.432Z,1.43
2019-05-07T00:52:33.363Z,1.40
2019-05-07T00:55:02.910Z,1.43
2019-05-07T00:57:32.409Z,1.00
2019-05-07T01:00:02.226Z,1.67
2019-05-07T01:02:32.355Z,1.30
2019-05-07T01:05:02.986Z,1.20
2019-05-07T01:07:32.461Z,1.13
2019-05-07T01:10:02.238Z,1.47
2019-05-07T01:12:32.829Z,1.60
2019-05-07T01:15:02.887Z,1.10
2019-05-07T01:17:33.342Z,1.43
2019-05-07T01:20:02.888Z,1.10
2019-05-07T01:22:32.999Z,1.23
2019-05-07T01:25:02.349Z,1.43
2019-05-07T01:27:32.161Z,1.77
2019-05-07T01:30:02.540Z,1.40
2019-05-07T01:32:33.106Z,1.13
2019-05-07T01:35:03.299Z,1.03
2019-05-07T01:37:32.571Z,1.63
2019-05-07T01:40:03.119Z,1.40
2019-05-07T01:42:32.680Z,1.97
2019-05-07T01:45:02.283Z,1.50
2019-05-07T01:47:32.999Z,1.27
2019-05-07T01:50:03.058Z,1.30
2019-05-07T01:52:33.054Z,1.60
2019-05-07T01:55:03.267Z,1.10
2019-05-07T01:57:32.573Z,1.50
2019-05-07T02:00:02.651Z,1.60
2019-05-07T02:02:32.886Z,1.30
2019-05-07T02:05:03.329Z,1.20
2019-05-07T02:07:33.606Z,1.40
2019-05-07T02:10:03.366Z,1.03
2019-05-07T02:12:33.446Z,1.17
2019-05-07T02:15:02.657Z,1.13
2019-05-07T02:17:32.247Z,1.57
2019-05-07T02:20:02.654Z,1.20
2019-05-07T02:22:31.985Z,1.17
2019-05-07T02:25:03.102Z,1.40
2019-05-07T02:27:32.628Z,1.40
2019-05-07T02:30:04.142Z,1.30
2019-05-07T02:32:33.451Z,1.27
2019-05-07T02:35:04.142Z,1.27
2019-05-07T02:37:42.270Z,1.13
2019-05-07T02:40:05.744Z,1.00
2019-05-07T02:42:34.541Z,1.37
2019-05-07T02:45:04.709Z,1.33
2019-05-07T02:47:34.222Z,1.20
2019-05-07T02:50:04.636Z,0.87
2019-05-07T02:52:53.314Z,1.10
2019-05-07T02:58:09.362Z,0.90
2019-05-07T03:00:38.089Z,0.77
2019-05-07T03:03:06.494Z,1.13
2019-05-07T03:05:35.131Z,1.73
2019-05-07T03:08:04.300Z,1.23
2019-05-07T03:10:34.060Z,1.00
2019-05-07T03:13:03.448Z,1.07
2019-05-07T03:15:33.619Z,1.40
2019-05-07T03:18:03.464Z,0.90
2019-05-07T03:20:42.931Z,1.00
2019-05-07T03:23:13.333Z,0.80
2019-05-07T03:25:49.351Z,0.97
2019-05-07T03:28:18.955Z,1.00
2019-05-07T03:30:49.079Z,1.03
2019-05-07T03:33:19.178Z,2.00
2019-05-07T03:35:56.719Z,0.83
2019-05-07T03:38:25.160Z,1.13
2019-05-07T03:40:53.559Z,0.80
2019-05-07T03:43:22.909Z,0.63
2019-05-07T03:45:54.024Z,0.80
2019-05-07T03:48:24.455Z,0.80
2019-05-07T03:50:53.305Z,0.80
2019-05-07T03:53:23.200Z,0.90
2019-05-07T03:55:53.880Z,0.80
2019-05-07T03:58:23.524Z,1.17
2019-05-07T04:00:53.611Z,1.20
2019-05-07T04:03:24.326Z,0.87
2019-05-07T04:05:53.196Z,1.20
2019-05-07T04:08:23.691Z,1.00
2019-05-07T04:10:53.887Z,1.00
2019-05-07T04:13:24.034Z,0.83
2019-05-07T04:15:52.730Z,0.77
2019-05-07T04:18:23.612Z,1.33
2019-05-07T04:20:54.066Z,1.03
2019-05-07T04:23:23.309Z,0.93
2019-05-07T04:25:53.507Z,1.00
2019-05-07T04:28:26.158Z,1.00
2019-05-07T04:30:55.715Z,1.17
2019-05-07T04:33:28.717Z,1.00
2019-05-07T04:36:13.859Z,1.10
2019-05-07T04:38:43.730Z,0.80
2019-05-07T04:41:13.566Z,0.93
2019-05-07T04:43:43.447Z,1.00
2019-05-07T04:46:14.510Z,0.73
2019-05-07T04:48:43.916Z,1.30
2019-05-07T04:51:13.405Z,0.90
2019-05-07T04:53:42.991Z,1.40
2019-05-07T04:56:14.069Z,1.30
2019-05-07T04:58:43.320Z,1.20
2019-05-07T05:01:19.813Z,1.13
2019-05-07T05:03:48.224Z,1.20
2019-05-07T05:06:16.629Z,1.37
2019-05-07T05:08:45.055Z,0.93
2019-05-07T05:11:13.125Z,1.13
2019-05-07T05:13:44.452Z,1.17
2019-05-07T05:16:13.338Z,1.30
2019-05-07T05:18:42.058Z,1.60
2019-05-07T05:21:18.537Z,1.00
2019-05-07T05:23:52.360Z,1.63
2019-05-07T05:26:21.861Z,1.10
2019-05-07T05:28:52.416Z,1.47
2019-05-07T05:31:22.260Z,1.20
2019-05-07T05:33:52.599Z,1.20
2019-05-07T05:36:22.204Z,0.97
2019-05-07T05:38:52.918Z,1.20
2019-05-07T05:41:22.646Z,1.00
2019-05-07T05:43:53.019Z,1.37
2019-05-07T05:46:23.320Z,1.57
2019-05-07T05:48:52.064Z,1.20
2019-05-07T05:51:37.011Z,1.30
2019-05-07T05:54:18.916Z,1.00
2019-05-07T05:56:48.964Z,1.40
2019-05-07T05:59:27.882Z,1.50
2019-05-07T06:01:53.589Z,1.50
2019-05-07T06:04:23.290Z,1.10
2019-05-07T06:07:07.894Z,1.30
2019-05-07T06:09:36.949Z,1.30
2019-05-07T06:12:13.035Z,1.00
2019-05-07T06:14:43.065Z,1.15
2019-05-07T06:17:25.044Z,1.22
2019-05-07T06:19:58.116Z,1.20
2019-05-07T06:22:42.311Z,1.25
2019-05-07T06:25:14.940Z,1.35
2019-05-07T06:27:42.192Z,1.50
2019-05-07T06:30:12.105Z,1.75
2019-05-07T06:32:42.758Z,1.65
2019-05-07T06:35:12.321Z,2.20
2019-05-07T06:37:42.926Z,2.35
2019-05-07T06:40:14.739Z,2.22
2019-05-07T06:42:53.912Z,2.52
2019-05-07T06:45:32.602Z,2.37
2019-05-07T06:47:59.984Z,2.95
2019-05-07T06:50:28.492Z,2.60
2019-05-07T06:52:56.897Z,2.92
2019-05-07T06:55:25.316Z,2.87
2019-05-07T06:57:53.733Z,2.65
2019-05-07T07:00:24.852Z,2.70
2019-05-07T07:03:06.724Z,3.72
2019-05-07T07:05:36.842Z,3.30
2019-05-07T07:08:18.786Z,3.45
2019-05-07T07:11:03.857Z,3.20
2019-05-07T07:13:32.406Z,3.65
2019-05-07T07:16:01.933Z,3.45
2019-05-07T07:18:32.290Z,3.10
2019-05-07T07:21:02.238Z,3.12
2019-05-07T07:23:32.441Z,3.85
2019-05-07T07:26:03.162Z,3.65
2019-05-07T07:28:32.644Z,3.05
2019-05-07T07:31:05.815Z,3.33
2019-05-07T07:33:38.572Z,3.37
2019-05-07T07:36:06.994Z,2.70
2019-05-07T07:38:36.077Z,3.12
2019-05-07T07:41:09.773Z,3.00
2019-05-07T07:43:38.193Z,3.67
2019-05-07T07:46:06.678Z,2.80
2019-05-07T07:48:35.077Z,2.50
2019-05-07T07:51:03.579Z,2.90
2019-05-07T07:53:35.149Z,2.75
2019-05-07T07:56:20.258Z,2.85
2019-05-07T07:58:52.751Z,3.30
2019-05-07T08:01:22.814Z,3.00
2019-05-07T08:03:52.255Z,3.30
2019-05-07T08:06:22.542Z,2.85
2019-05-07T08:08:52.897Z,3.00
2019-05-07T08:11:22.000Z,2.72
2019-05-07T08:13:52.770Z,3.12
2019-05-07T08:16:22.271Z,3.00
2019-05-07T08:18:52.163Z,3.20
2019-05-07T08:21:22.693Z,3.12
2019-05-07T08:23:52.862Z,2.87
2019-05-07T08:26:21.880Z,2.72
2019-05-07T08:28:52.417Z,3.00
2019-05-07T08:31:24.836Z,2.05
2019-05-07T08:34:06.611Z,2.20
2019-05-07T08:36:34.683Z,2.10
2019-05-07T08:39:05.485Z,2.02
2019-05-07T08:41:34.258Z,2.37
2019-05-07T08:44:11.441Z,2.40
2019-05-07T08:46:45.297Z,2.17
2019-05-07T08:49:15.357Z,2.10
2019-05-07T08:51:43.766Z,2.20
2019-05-07T08:54:12.416Z,2.37
2019-05-07T08:56:42.503Z,2.10
2019-05-07T08:59:12.385Z,2.27
2019-05-07T09:01:43.262Z,1.95
2019-05-07T09:04:13.476Z,2.72
2019-05-07T09:06:43.077Z,2.75
2019-05-07T09:09:13.474Z,2.50
2019-05-07T09:11:42.761Z,2.45
2019-05-07T09:14:12.573Z,2.47
2019-05-07T09:16:42.739Z,2.30
2019-05-07T09:19:12.906Z,2.45
2019-05-07T09:21:42.818Z,2.20
2019-05-07T09:24:12.175Z,1.87
2019-05-07T09:26:48.592Z,1.95
2019-05-07T09:29:18.932Z,1.90
2019-05-07T09:31:48.989Z,2.12
2019-05-07T09:34:19.185Z,2.20
2019-05-07T09:37:07.232Z,2.02
2019-05-07T09:39:35.324Z,2.10
2019-05-07T09:42:03.736Z,1.98
2019-05-07T09:44:32.504Z,2.05
2019-05-07T09:47:02.627Z,2.25
2019-05-07T09:49:32.666Z,2.30
2019-05-07T09:52:02.613Z,2.00
2019-05-07T09:54:32.388Z,2.10
2019-05-07T09:57:01.986Z,2.17
2019-05-07T09:59:32.343Z,2.27
2019-05-07T10:02:01.775Z,1.92
2019-05-07T10:04:32.591Z,2.50
2019-05-07T10:07:02.551Z,2.02
2019-05-07T10:09:32.758Z,1.77
2019-05-07T10:12:15.264Z,2.05
2019-05-07T10:14:43.668Z,1.98
2019-05-07T10:17:16.449Z,1.62
2019-05-07T10:19:44.878Z,2.10
2019-05-07T10:22:13.286Z,1.95
2019-05-07T10:24:41.985Z,2.40
2019-05-07T10:27:12.693Z,2.42
2019-05-07T10:29:42.787Z,2.30
2019-05-07T10:32:12.816Z,2.20
2019-05-07T10:34:42.253Z,2.05
2019-05-07T10:37:12.046Z,2.00
2019-05-07T10:39:42.895Z,2.20
2019-05-07T10:42:12.350Z,2.27
2019-05-07T10:44:43.273Z,2.27
2019-05-07T10:47:29.373Z,2.87
2019-05-07T10:50:15.637Z,2.90
2019-05-07T10:52:45.058Z,2.20
2019-05-07T10:55:14.045Z,2.50
2019-05-07T10:57:42.455Z,2.22
2019-05-07T11:00:12.430Z,2.80
2019-05-07T11:02:42.459Z,2.70
2019-05-07T11:05:12.861Z,2.98
2019-05-07T11:07:42.182Z,2.85
2019-05-07T11:10:12.540Z,2.08
2019-05-07T11:12:42.430Z,2.12
2019-05-07T11:15:12.757Z,2.50
2019-05-07T11:17:58.137Z,2.87
2019-05-07T11:20:26.568Z,2.60
2019-05-07T11:22:54.971Z,2.37
2019-05-07T11:25:23.388Z,3.08
2019-05-07T11:27:52.392Z,2.52
2019-05-07T11:30:22.944Z,2.75
2019-05-07T11:32:52.236Z,2.85
2019-05-07T11:35:22.986Z,2.58
2019-05-07T11:37:52.034Z,2.65
2019-05-07T11:40:23.035Z,3.12
2019-05-07T11:43:09.512Z,2.90
2019-05-07T11:45:39.579Z,2.72
2019-05-07T11:48:08.021Z,2.83
2019-05-07T11:50:39.782Z,2.87
2019-05-07T11:53:09.832Z,3.40
2019-05-07T11:55:38.241Z,3.40
2019-05-07T11:58:06.660Z,3.05
2019-05-07T12:00:42.702Z,3.15
2019-05-07T12:03:11.460Z,3.27
2019-05-07T12:05:42.130Z,3.08
2019-05-07T12:08:10.056Z,2.95
2019-05-07T12:10:38.471Z,2.95
2019-05-07T12:13:06.888Z,3.05
2019-05-07T12:15:34.965Z,3.10
2019-05-07T12:18:03.516Z,2.72
2019-05-07T12:20:32.428Z,2.65
2019-05-07T12:23:02.810Z,3.05
2019-05-07T12:25:32.035Z,2.95
2019-05-07T12:28:02.478Z,2.58
2019-05-07T12:30:35.549Z,3.30
2019-05-07T12:33:14.826Z,3.22
2019-05-07T12:35:43.297Z,2.98
2019-05-07T12:38:12.807Z,2.80
2019-05-07T12:40:41.962Z,3.00
2019-05-07T12:43:10.650Z,3.02
2019-05-07T12:45:39.152Z,2.42
2019-05-07T12:48:07.241Z,2.90
2019-05-07T12:50:35.645Z,3.37
2019-05-07T12:53:05.704Z,3.40
2019-05-07T12:55:35.741Z,3.08
2019-05-07T12:58:04.216Z,3.05
2019-05-07T13:00:52.351Z,3.02
2019-05-07T13:03:24.613Z,2.47
2019-05-07T13:05:53.030Z,3.20
2019-05-07T13:08:23.013Z,3.08
2019-05-07T13:10:51.981Z,3.87
2019-05-07T13:13:20.451Z,3.37
2019-05-07T13:15:48.864Z,3.67
2019-05-07T13:18:17.276Z,3.55
2019-05-07T13:20:48.808Z,3.10
2019-05-07T13:23:15.980Z,2.90
2019-05-07T13:26:03.717Z,3.50
2019-05-07T13:28:32.120Z,3.27
2019-05-07T13:31:02.386Z,3.37
2019-05-07T13:33:34.670Z,3.15
2019-05-07T13:36:04.281Z,3.40
2019-05-07T13:38:38.304Z,3.30
2019-05-07T13:41:14.057Z,2.58
2019-05-07T13:44:02.848Z,3.27
2019-05-07T13:46:33.140Z,3.30
2019-05-07T13:49:02.097Z,3.17
2019-05-07T13:51:33.620Z,3.12
2019-05-07T13:54:02.082Z,3.00
2019-05-07T13:56:32.563Z,4.20
2019-05-07T13:59:02.377Z,3.42
2019-05-07T14:01:32.806Z,3.72
2019-05-07T14:04:04.122Z,3.58
2019-05-07T14:06:38.445Z,3.17
2019-05-07T14:09:14.124Z,3.27
2019-05-07T14:11:42.600Z,3.30
2019-05-07T14:14:12.339Z,4.00
2019-05-07T14:16:44.715Z,3.10
2019-05-07T14:19:12.958Z,3.27
2019-05-07T14:21:42.136Z,3.08
2019-05-07T14:24:14.591Z,3.30
2019-05-07T14:26:42.207Z,3.22
2019-05-07T14:29:10.594Z,3.58
2019-05-07T14:31:39.022Z,3.00
2019-05-07T14:34:24.374Z,2.83
2019-05-07T14:37:02.327Z,3.05
2019-05-07T14:39:32.671Z,2.85
2019-05-07T14:42:02.704Z,3.50
2019-05-07T14:44:32.966Z,3.70
2019-05-07T14:47:02.390Z,3.33
2019-05-07T14:49:31.740Z,2.77
2019-05-07T14:52:02.325Z,3.25
2019-05-07T14:54:32.210Z,3.72
2019-05-07T14:57:02.242Z,3.75
2019-05-07T14:59:32.321Z,3.00
2019-05-07T15:02:02.699Z,3.77
2019-05-07T15:04:30.600Z,3.62
2019-05-07T15:06:58.997Z,3.77
2019-05-07T15:09:27.414Z,2.65
2019-05-07T15:11:55.907Z,3.30
2019-05-07T15:14:24.316Z,2.95
2019-05-07T15:16:54.383Z,4.00
2019-05-07T15:19:22.801Z,3.92
2019-05-07T15:21:52.937Z,3.98
2019-05-07T15:24:22.056Z,3.25
2019-05-07T15:26:52.921Z,2.98
2019-05-07T15:29:22.366Z,2.83
2019-05-07T15:31:55.449Z,3.72
2019-05-07T15:34:24.206Z,3.15
2019-05-07T15:36:52.807Z,3.40
2019-05-07T15:39:22.266Z,3.25
2019-05-07T15:41:51.808Z,3.15
2019-05-07T15:44:20.543Z,3.08
2019-05-07T15:46:48.979Z,3.10
2019-05-07T15:49:17.380Z,3.10
2019-05-07T15:51:45.854Z,3.10
2019-05-07T15:54:14.260Z,3.12
2019-05-07T15:56:42.677Z,3.00
2019-05-07T15:59:12.847Z,2.92
2019-05-07T16:01:41.979Z,2.83
2019-05-07T16:04:19.975Z,2.90
2019-05-07T16:06:42.426Z,3.05
2019-05-07T16:09:12.775Z,2.72
2019-05-07T16:11:42.873Z,3.05
2019-05-07T16:14:15.178Z,2.90
2019-05-07T16:16:44.970Z,2.95
2019-05-07T16:19:20.921Z,2.90
2019-05-07T16:21:49.344Z,3.90
2019-05-07T16:24:17.824Z,3.00
2019-05-07T16:26:46.245Z,2.95
2019-05-07T16:29:14.308Z,2.60
2019-05-07T16:31:44.191Z,3.17
2019-05-07T16:34:12.920Z,3.00
2019-05-07T16:36:42.005Z,3.08
2019-05-07T16:39:12.114Z,3.10
2019-05-07T16:41:42.215Z,3.08
2019-05-07T16:44:12.229Z,3.25
2019-05-07T16:46:42.133Z,2.87
2019-05-07T16:49:12.061Z,3.42
2019-05-07T16:51:41.936Z,3.47
2019-05-07T16:54:12.189Z,3.22
2019-05-07T16:56:42.791Z,2.85
2019-05-07T16:59:12.615Z,2.85
2019-05-07T17:01:42.880Z,3.25
2019-05-07T17:04:12.279Z,2.90
2019-05-07T17:06:42.532Z,3.12
2019-05-07T17:09:13.516Z,3.05
2019-05-07T17:11:43.652Z,3.05
2019-05-07T17:14:13.042Z,3.52
2019-05-07T17:16:41.603Z,3.70
2019-05-07T17:19:11.784Z,3.72
2019-05-07T17:21:42.923Z,3.67
2019-05-07T17:24:11.977Z,3.22
2019-05-07T17:26:42.325Z,3.70
2019-05-07T17:29:12.070Z,4.10
2019-05-07T17:31:42.272Z,4.08
2019-05-07T17:34:11.818Z,4.70
2019-05-07T17:36:42.148Z,3.65
2019-05-07T17:39:12.193Z,3.45
2019-05-07T17:41:42.692Z,3.05
2019-05-07T17:44:11.936Z,3.40
2019-05-07T17:46:42.704Z,3.30
2019-05-07T17:49:11.990Z,3.62
2019-05-07T17:51:44.512Z,3.60
2019-05-07T17:54:14.059Z,3.85
2019-05-07T17:56:43.323Z,3.17
2019-05-07T17:59:12.332Z,3.20
2019-05-07T18:01:50.180Z,3.08
2019-05-07T18:04:18.489Z,2.33
2019-05-07T18:06:46.907Z,3.47
2019-05-07T18:09:15.302Z,3.30
2019-05-07T18:11:43.709Z,2.55
2019-05-07T18:14:12.124Z,3.22
2019-05-07T18:16:57.420Z,2.92
2019-05-07T18:19:26.592Z,3.02
2019-05-07T18:22:02.498Z,3.27
2019-05-07T18:24:32.423Z,2.45
2019-05-07T18:27:01.947Z,4.45
2019-05-07T18:29:32.400Z,3.00
2019-05-07T18:32:02.368Z,3.10
2019-05-07T18:34:32.083Z,3.22
2019-05-07T18:37:02.091Z,2.62
2019-05-07T18:39:32.472Z,2.98
2019-05-07T18:42:02.754Z,3.30
2019-05-07T18:44:30.868Z,3.35
2019-05-07T18:46:59.274Z,3.00
2019-05-07T18:49:27.693Z,2.33
2019-05-07T18:51:56.097Z,2.58
2019-05-07T18:54:30.514Z,2.50
2019-05-07T18:56:54.397Z,2.20
2019-05-07T18:59:24.440Z,1.92
2019-05-07T19:01:52.849Z,2.45
2019-05-07T19:04:21.926Z,2.50
2019-05-07T19:06:51.776Z,2.55
2019-05-07T19:09:22.330Z,2.00
2019-05-07T19:11:52.275Z,2.20
2019-05-07T19:14:22.749Z,2.62
2019-05-07T19:16:52.553Z,2.25
2019-05-07T19:19:22.120Z,2.58
2019-05-07T19:21:52.846Z,2.35
2019-05-07T19:24:24.108Z,2.22
2019-05-07T19:26:52.926Z,2.27
2019-05-07T19:29:23.307Z,2.52
2019-05-07T19:31:52.527Z,2.70
2019-05-07T19:34:21.814Z,3.12
2019-05-07T19:36:51.976Z,3.05
2019-05-07T19:39:20.609Z,2.80
2019-05-07T19:41:49.016Z,3.00
2019-05-07T19:44:17.421Z,2.67
2019-05-07T19:46:45.817Z,3.47
2019-05-07T19:49:14.225Z,3.20
2019-05-07T19:51:42.895Z,2.80
2019-05-07T19:54:11.397Z,3.10
2019-05-07T19:56:42.437Z,2.77
2019-05-07T19:59:12.483Z,3.37
2019-05-07T20:01:42.656Z,2.87
2019-05-07T20:04:13.136Z,3.30
2019-05-07T20:06:42.847Z,2.70
2019-05-07T20:09:14.736Z,2.92
2019-05-07T20:11:43.223Z,2.67
2019-05-07T20:14:11.316Z,2.98
2019-05-07T20:16:41.902Z,2.93
2019-05-07T20:19:11.881Z,3.30
2019-05-07T20:21:39.649Z,3.40
2019-05-07T20:24:08.066Z,3.20
2019-05-07T20:26:36.148Z,2.70
2019-05-07T20:29:04.511Z,2.87
2019-05-07T20:31:33.556Z,2.72
2019-05-07T20:34:02.500Z,3.10
2019-05-07T20:36:32.806Z,3.10
2019-05-07T20:39:02.219Z,2.75
2019-05-07T20:41:32.881Z,2.70
2019-05-07T20:44:02.890Z,3.40
2019-05-07T20:46:31.973Z,3.50
2019-05-07T20:49:02.692Z,2.85
2019-05-07T20:51:32.506Z,3.42
2019-05-07T20:54:05.025Z,3.10
2019-05-07T20:56:51.905Z,2.98
2019-05-07T20:59:21.939Z,3.22
2019-05-07T21:01:52.097Z,2.63
2019-05-07T21:04:22.266Z,2.80
2019-05-07T21:06:52.468Z,2.65
2019-05-07T21:09:22.046Z,2.55
2019-05-07T21:11:50.532Z,3.10
2019-05-07T21:14:18.612Z,2.83
2019-05-07T21:16:47.028Z,2.80
2019-05-07T21:19:15.472Z,2.60
2019-05-07T21:21:43.919Z,3.20
2019-05-07T21:24:13.083Z,2.87
2019-05-07T21:26:42.463Z,2.90
2019-05-07T21:29:13.497Z,2.45
2019-05-07T21:31:43.146Z,3.10
2019-05-07T21:34:12.382Z,2.50
2019-05-07T21:36:43.001Z,3.17
2019-05-07T21:39:13.057Z,3.50
2019-05-07T21:41:42.676Z,3.25
2019-05-07T21:44:11.663Z,3.53
2019-05-07T21:46:42.328Z,3.47
2019-05-07T21:49:12.190Z,2.30
2019-05-07T21:51:40.331Z,2.97
2019-05-07T21:54:16.294Z,2.90
2019-05-07T21:56:46.333Z,3.40
2019-05-07T21:59:16.372Z,3.30
2019-05-07T22:04:45.657Z,2.93
2019-05-07T22:07:14.345Z,3.50
2019-05-07T22:09:42.736Z,2.33
2019-05-07T22:12:12.126Z,2.60
2019-05-07T22:14:40.408Z,2.80
2019-05-07T22:17:08.845Z,2.73
2019-05-07T22:19:37.320Z,2.40
2019-05-07T22:22:25.070Z,2.37
2019-05-07T22:24:53.470Z,2.43
2019-05-07T22:27:22.092Z,2.67
2019-05-07T22:29:52.742Z,2.37
2019-05-07T22:32:25.257Z,2.20
2019-05-07T22:35:12.094Z,2.63
2019-05-07T22:37:40.681Z,3.03
2019-05-07T22:40:08.790Z,2.60
2019-05-07T22:42:37.190Z,2.07
2019-05-07T22:45:06.836Z,2.30
2019-05-07T22:47:35.261Z,2.60
2019-05-07T22:50:04.389Z,2.47
2019-05-07T22:52:32.865Z,2.57
2019-05-07T22:55:00.937Z,2.13
2019-05-07T22:57:36.672Z,2.27
2019-05-07T23:00:12.308Z,2.37
2019-05-07T23:02:42.659Z,2.60
2019-05-07T23:05:12.217Z,2.20
2019-05-07T23:07:41.755Z,1.80
2019-05-07T23:10:11.914Z,1.80
2019-05-07T23:12:40.523Z,2.17
2019-05-07T23:15:11.816Z,2.17
2019-05-07T23:17:39.735Z,2.00
2019-05-07T23:20:08.914Z,2.43
2019-05-07T23:22:37.320Z,2.87
2019-05-07T23:25:06.656Z,2.47
2019-05-07T23:27:35.070Z,2.43
2019-05-07T23:30:03.636Z,2.43
2019-05-07T23:32:32.981Z,2.30
2019-05-07T23:35:02.209Z,2.33
2019-05-07T23:37:32.966Z,1.77
2019-05-07T23:40:18.936Z,1.80
2019-05-07T23:42:48.964Z,1.80
2019-05-07T23:45:17.360Z,1.87
2019-05-07T23:47:45.774Z,1.93
2019-05-07T23:50:14.322Z,1.90
2019-05-07T23:52:44.136Z,1.97
2019-05-07T23:55:12.435Z,1.67
2019-05-07T23:57:42.968Z,2.00
